Time;durP1;ratioP1;P1;durP2;ratioP2;P2;SDS_P1;SDS_P2;PMS_P1;PMS_P2;Temp;Humidity;BMP_temperature;BMP_pressure;BME280_temperature;BME280_humidity;BME280_pressure;Samples;Min_cycle;Max_cycle;Signal;HPM_P1;HPM_P2
2022/03/07 00:01:33;;;;;;;11.97;7.17;;;0.50;34.60;;;;;;5032659;28;46421;-67
2022/03/07 00:03:59;;;;;;;9.53;6.60;;;0.50;34.80;;;;;;5029691;28;46355;-66
2022/03/07 00:06:24;;;;;;;9.43;6.30;;;0.40;35.20;;;;;;5033691;28;46217;-68
2022/03/07 00:08:50;;;;;;;11.80;7.37;;;0.30;35.90;;;;;;5028602;28;46444;-65
2022/03/07 00:11:16;;;;;;;12.17;7.20;;;0.30;36.00;;;;;;5031063;28;46500;-65
2022/03/07 00:13:43;;;;;;;14.70;7.97;;;0.30;36.00;;;;;;5032757;28;46581;-67
2022/03/07 00:16:08;;;;;;;8.35;6.15;;;0.30;36.20;;;;;;5029800;28;46270;-67
2022/03/07 00:18:34;;;;;;;13.20;7.27;;;0.30;36.60;;;;;;5028809;28;45855;-65
2022/03/07 00:21:00;;;;;;;10.93;7.00;;;0.20;36.80;;;;;;5029502;28;46469;-65
2022/03/07 00:23:25;;;;;;;12.00;6.43;;;0.20;36.70;;;;;;5032986;28;46359;-65
2022/03/07 00:25:51;;;;;;;11.73;6.80;;;0.30;36.50;;;;;;5026182;28;46538;-65
2022/03/07 00:28:16;;;;;;;15.13;8.50;;;0.40;36.40;;;;;;5025624;28;46537;-65
2022/03/07 00:30:42;;;;;;;12.60;7.17;;;0.30;36.40;;;;;;5031881;28;46683;-67
2022/03/07 00:33:08;;;;;;;8.90;7.10;;;0.30;36.60;;;;;;5036461;28;47009;-70
2022/03/07 00:35:34;;;;;;;12.60;7.53;;;0.20;36.80;;;;;;5034501;28;46367;-65
2022/03/07 00:37:59;;;;;;;8.90;6.70;;;0.20;37.20;;;;;;5036715;28;46429;-65
2022/03/07 00:40:25;;;;;;;11.83;7.50;;;0.20;37.70;;;;;;5034158;28;46466;-67
2022/03/07 00:42:51;;;;;;;14.57;8.10;;;0.10;37.80;;;;;;5030471;28;47128;-69
2022/03/07 00:45:17;;;;;;;13.30;7.90;;;0.10;38.10;;;;;;5031342;28;46382;-65
2022/03/07 00:47:43;;;;;;;11.93;7.38;;;0.00;38.70;;;;;;5028776;28;46492;-63
2022/03/07 00:50:09;;;;;;;13.03;7.07;;;0.10;39.10;;;;;;5026796;28;46340;-69
2022/03/07 00:52:34;;;;;;;13.55;8.10;;;0.00;39.10;;;;;;5025996;28;47044;-64
2022/03/07 00:55:00;;;;;;;10.43;7.27;;;0.00;39.60;;;;;;5027165;28;46259;-66
2022/03/07 00:57:26;;;;;;;16.87;9.10;;;-0.10;39.90;;;;;;5023899;28;46420;-68
2022/03/07 00:59:51;;;;;;;13.27;7.80;;;0.00;39.90;;;;;;5028039;28;46364;-65
2022/03/07 01:02:17;;;;;;;9.80;7.13;;;-0.10;40.30;;;;;;5033807;28;46269;-65
2022/03/07 01:04:43;;;;;;;12.00;7.80;;;-0.10;40.70;;;;;;5034779;28;45788;-66
2022/03/07 01:07:09;;;;;;;11.13;7.33;;;-0.10;41.20;;;;;;5034202;28;46405;-68
2022/03/07 01:09:35;;;;;;;13.38;7.60;;;-0.10;41.50;;;;;;5032307;28;46380;-66
2022/03/07 01:12:00;;;;;;;11.60;8.00;;;-0.20;42.50;;;;;;5025630;28;46412;-66
2022/03/07 01:14:26;;;;;;;9.27;6.60;;;-0.20;42.70;;;;;;5032556;28;46352;-66
2022/03/07 01:16:52;;;;;;;11.47;6.87;;;-0.20;43.50;;;;;;5036488;28;46437;-64
2022/03/07 01:19:17;;;;;;;14.43;8.97;;;-0.30;43.80;;;;;;5030979;28;46275;-69
2022/03/07 01:21:44;;;;;;;14.70;10.20;;;-0.40;43.70;;;;;;5032436;28;46383;-65
2022/03/07 01:24:10;;;;;;;12.57;8.50;;;-0.30;43.80;;;;;;5035471;28;46491;-66
2022/03/07 01:26:37;;;;;;;12.80;8.40;;;-0.30;43.80;;;;;;5033273;28;46391;-68
2022/03/07 01:29:03;;;;;;;15.95;8.35;;;-0.40;43.70;;;;;;5036952;28;46550;-64
2022/03/07 01:31:29;;;;;;;10.52;8.02;;;-0.30;43.80;;;;;;5032512;28;46394;-64
2022/03/07 01:33:56;;;;;;;13.13;8.88;;;-0.40;43.70;;;;;;5031187;28;46367;-67
2022/03/07 01:36:22;;;;;;;11.30;8.10;;;-0.30;43.80;;;;;;5031120;28;46442;-68
2022/03/07 01:38:48;;;;;;;16.13;9.98;;;-0.40;43.90;;;;;;5036663;28;45978;-66
2022/03/07 01:41:14;;;;;;;12.25;8.10;;;-0.40;44.40;;;;;;5032630;28;46942;-66
2022/03/07 01:43:40;;;;;;;13.03;8.97;;;-0.40;44.60;;;;;;5029735;28;46370;-65
2022/03/07 01:46:05;;;;;;;13.00;8.30;;;-0.40;44.20;;;;;;5034591;28;46375;-66
2022/03/07 01:48:31;;;;;;;13.70;8.33;;;-0.30;44.10;;;;;;5036821;28;46371;-65
2022/03/07 01:50:57;;;;;;;12.20;8.27;;;-0.30;44.10;;;;;;5031984;28;46889;-67
2022/03/07 01:53:22;;;;;;;17.30;8.90;;;-0.30;43.80;;;;;;5033121;28;46361;-65
2022/03/07 01:55:48;;;;;;;16.13;10.43;;;-0.40;44.50;;;;;;5035592;28;46401;-66
2022/03/07 01:58:14;;;;;;;15.27;9.20;;;-0.40;45.40;;;;;;5030841;28;46346;-65
2022/03/07 02:00:39;;;;;;;17.47;9.30;;;-0.40;45.40;;;;;;5030122;28;46473;-67
2022/03/07 02:03:06;;;;;;;18.30;8.97;;;-0.40;45.70;;;;;;5029111;28;46435;-64
2022/03/07 02:05:32;;;;;;;14.48;9.50;;;-0.50;46.10;;;;;;5033677;28;46591;-67
2022/03/07 02:07:57;;;;;;;13.40;7.87;;;-0.50;45.80;;;;;;5031210;28;46432;-66
2022/03/07 02:10:27;;;;;;;16.43;10.50;;;-0.50;46.10;;;;;;5027387;28;46488;-66
2022/03/07 02:12:53;;;;;;;17.02;10.10;;;-0.50;46.20;;;;;;5036386;28;46468;-64
2022/03/07 02:15:19;;;;;;;18.50;10.70;;;-0.50;46.20;;;;;;5035076;28;46398;-65
2022/03/07 02:17:45;;;;;;;15.13;10.47;;;-0.50;46.80;;;;;;5034078;28;46390;-67
2022/03/07 02:20:12;;;;;;;17.67;10.45;;;-0.50;46.80;;;;;;5031077;28;47457;-65
2022/03/07 02:22:38;;;;;;;18.63;10.18;;;-0.60;47.20;;;;;;5034370;28;46428;-65
2022/03/07 02:25:05;;;;;;;14.70;9.77;;;-0.60;47.30;;;;;;5031969;28;46398;-65
2022/03/07 02:27:32;;;;;;;19.00;9.25;;;-0.50;47.30;;;;;;5032027;28;46572;-65
2022/03/07 02:29:59;;;;;;;16.30;10.23;;;-0.50;47.40;;;;;;5029471;28;47175;-64
2022/03/07 02:32:26;;;;;;;19.08;11.15;;;-0.50;47.60;;;;;;5029239;28;46759;-65
2022/03/07 02:34:52;;;;;;;17.23;10.07;;;-0.60;47.40;;;;;;5030424;28;46414;-65
2022/03/07 02:37:18;;;;;;;16.03;10.40;;;-0.50;47.40;;;;;;5036769;28;46557;-66
2022/03/07 02:39:44;;;;;;;16.15;10.25;;;-0.50;47.50;;;;;;5031236;28;47381;-65
2022/03/07 02:42:10;;;;;;;18.47;11.13;;;-0.50;47.50;;;;;;5030891;28;46362;-67
2022/03/07 02:44:35;;;;;;;18.90;11.07;;;-0.50;47.40;;;;;;5031170;28;46407;-66
2022/03/07 02:47:01;;;;;;;16.37;10.43;;;-0.50;47.40;;;;;;5032831;28;46445;-66
2022/03/07 02:49:27;;;;;;;19.20;11.47;;;-0.50;47.60;;;;;;5025751;28;46197;-67
2022/03/07 02:51:52;;;;;;;16.77;10.50;;;-0.40;47.20;;;;;;5030983;28;46354;-65
2022/03/07 02:54:18;;;;;;;18.53;10.80;;;-0.50;47.30;;;;;;5031684;28;46538;-67
2022/03/07 02:56:44;;;;;;;14.60;10.00;;;-0.50;47.80;;;;;;5035169;28;46417;-65
2022/03/07 02:59:11;;;;;;;13.85;8.93;;;-0.50;47.60;;;;;;5033783;28;46350;-68
2022/03/07 03:01:36;;;;;;;19.27;10.55;;;-0.60;47.80;;;;;;5025757;28;46659;-69
2022/03/07 03:04:02;;;;;;;16.63;10.60;;;-0.60;47.80;;;;;;5025730;28;46755;-68
2022/03/07 03:06:28;;;;;;;18.35;10.98;;;-0.50;47.70;;;;;;5024446;28;46566;-67
2022/03/07 03:08:54;;;;;;;14.30;10.47;;;-0.50;48.00;;;;;;5026899;28;46709;-66
2022/03/07 03:11:20;;;;;;;18.87;10.33;;;-0.60;48.10;;;;;;5019836;28;46499;-66
2022/03/07 03:13:45;;;;;;;15.90;9.17;;;-0.60;48.50;;;;;;5024855;28;46188;-66
2022/03/07 03:16:11;;;;;;;16.83;10.10;;;-0.60;48.70;;;;;;5026401;28;47496;-63
2022/03/07 03:18:37;;;;;;;15.77;9.60;;;-0.60;48.50;;;;;;5022253;28;47244;-64
2022/03/07 03:21:03;;;;;;;14.47;8.90;;;-0.60;48.50;;;;;;5028235;28;46533;-65
2022/03/07 03:23:29;;;;;;;18.43;10.03;;;-0.60;48.70;;;;;;5026804;28;46715;-67
2022/03/07 03:25:54;;;;;;;22.73;9.93;;;-0.70;49.00;;;;;;5028900;28;46856;-66
2022/03/07 03:28:21;;;;;;;17.57;10.00;;;-0.70;48.90;;;;;;5027231;28;46437;-68
2022/03/07 03:30:46;;;;;;;13.80;9.02;;;-0.70;49.50;;;;;;5029607;28;46437;-68
2022/03/07 03:33:12;;;;;;;15.00;8.80;;;-0.70;49.40;;;;;;5031129;28;46465;-65
2022/03/07 03:35:38;;;;;;;17.20;10.27;;;-0.70;49.70;;;;;;5033388;28;46482;-66
2022/03/07 03:38:11;;;;;;;15.50;10.10;;;-0.70;49.60;;;;;;5030656;28;46375;-66
2022/03/07 03:40:37;;;;;;;16.60;10.32;;;-0.80;49.80;;;;;;5030832;28;46504;-64
2022/03/07 03:43:02;;;;;;;13.02;9.68;;;-0.70;50.00;;;;;;5028716;28;46436;-65
2022/03/07 03:45:29;;;;;;;14.40;9.67;;;-0.70;49.70;;;;;;5025379;28;46424;-64
2022/03/07 03:47:54;;;;;;;14.70;10.82;;;-0.70;49.60;;;;;;5023953;28;48124;-66
2022/03/07 03:50:20;;;;;;;14.70;10.30;;;-0.70;49.40;;;;;;5032985;28;46508;-65
2022/03/07 03:52:46;;;;;;;16.87;11.07;;;-0.70;49.60;;;;;;5027273;28;45938;-66
2022/03/07 03:55:12;;;;;;;14.65;10.02;;;-0.70;49.50;;;;;;5032325;28;46565;-69
2022/03/07 03:57:39;;;;;;;14.68;8.75;;;-0.80;49.90;;;;;;5029090;28;46439;-68
2022/03/07 04:00:07;;;;;;;14.38;9.02;;;-0.80;50.20;;;;;;5028178;28;46410;-65
2022/03/07 04:02:33;;;;;;;14.15;9.65;;;-0.80;50.10;;;;;;5030869;28;46487;-66
2022/03/07 04:04:59;;;;;;;14.40;8.80;;;-0.80;50.10;;;;;;5032077;28;46386;-66
2022/03/07 04:07:25;;;;;;;13.13;9.60;;;-0.80;49.90;;;;;;5027368;28;46521;-68
2022/03/07 04:09:50;;;;;;;15.63;10.57;;;-0.80;49.70;;;;;;5032423;28;46254;-66
2022/03/07 04:12:20;;;;;;;14.10;8.80;;;-0.80;49.60;;;;;;5033260;28;45812;-63
2022/03/07 04:14:46;;;;;;;13.57;8.85;;;-0.70;49.80;;;;;;5029871;28;46516;-64
2022/03/07 04:17:11;;;;;;;12.97;8.00;;;-0.80;49.70;;;;;;5032441;28;46453;-69
2022/03/07 04:19:37;;;;;;;15.63;9.60;;;-0.80;49.60;;;;;;5026252;28;46558;-66
2022/03/07 04:22:03;;;;;;;13.17;8.50;;;-0.70;49.60;;;;;;5028535;28;45854;-65
2022/03/07 04:24:30;;;;;;;12.38;8.45;;;-0.70;49.30;;;;;;5034488;28;46596;-66
2022/03/07 04:26:56;;;;;;;16.10;9.40;;;-0.60;49.30;;;;;;5029167;28;46299;-64
2022/03/07 04:29:22;;;;;;;16.02;9.25;;;-0.60;48.90;;;;;;5028076;28;46265;-69
2022/03/07 04:31:48;;;;;;;13.67;8.77;;;-0.60;48.70;;;;;;5035164;28;46598;-67
2022/03/07 04:34:13;;;;;;;19.33;9.60;;;-0.60;48.80;;;;;;5031551;28;46488;-63
2022/03/07 04:36:40;;;;;;;18.93;10.27;;;-0.60;48.80;;;;;;5031859;28;46174;-63
2022/03/07 04:39:09;;;;;;;19.55;10.57;;;-0.50;48.40;;;;;;5034039;28;46636;-65
2022/03/07 04:41:36;;;;;;;12.57;7.97;;;-0.60;48.40;;;;;;5029302;28;46429;-67
2022/03/07 04:44:02;;;;;;;12.70;7.97;;;-0.60;48.50;;;;;;5031330;28;46548;-65
2022/03/07 04:46:28;;;;;;;12.73;8.07;;;-0.60;48.30;;;;;;5027218;28;46636;-68
2022/03/07 04:48:53;;;;;;;13.70;8.57;;;-0.60;48.50;;;;;;5029002;28;46412;-67
2022/03/07 04:51:19;;;;;;;13.87;8.30;;;-0.50;48.50;;;;;;5034347;28;46366;-66
2022/03/07 04:53:45;;;;;;;11.97;8.13;;;-0.60;48.20;;;;;;5033015;28;46405;-65
2022/03/07 04:56:11;;;;;;;16.33;8.20;;;-0.60;48.40;;;;;;5031535;28;46460;-64
2022/03/07 04:58:37;;;;;;;13.30;7.80;;;-0.60;48.40;;;;;;5037288;28;46336;-64
2022/03/07 05:01:04;;;;;;;9.23;5.95;;;-0.70;48.50;;;;;;5035236;28;46715;-67
2022/03/07 05:03:29;;;;;;;16.00;8.13;;;-0.70;48.70;;;;;;5033811;28;46317;-68
2022/03/07 05:05:55;;;;;;;10.67;7.30;;;-0.80;48.80;;;;;;5033162;28;46480;-67
2022/03/07 05:08:21;;;;;;;9.87;7.30;;;-0.90;48.60;;;;;;5033613;28;46378;-67
2022/03/07 05:10:47;;;;;;;9.70;6.90;;;-0.90;48.40;;;;;;5031899;28;46412;-67
2022/03/07 05:13:12;;;;;;;8.83;6.10;;;-0.90;48.50;;;;;;5035563;28;46228;-68
2022/03/07 05:15:38;;;;;;;8.60;6.50;;;-1.00;48.40;;;;;;5035230;28;46413;-67
2022/03/07 05:18:04;;;;;;;12.53;7.20;;;-1.10;48.50;;;;;;5030729;28;46456;-65
2022/03/07 05:20:30;;;;;;;10.90;7.07;;;-1.10;48.60;;;;;;5032626;28;45860;-66
2022/03/07 05:22:56;;;;;;;10.27;7.50;;;-1.20;48.80;;;;;;5036875;28;46364;-68
2022/03/07 05:25:22;;;;;;;9.93;6.47;;;-1.20;48.70;;;;;;5033826;28;46409;-67
2022/03/07 05:27:48;;;;;;;11.45;6.43;;;-1.30;48.50;;;;;;5030219;28;46359;-65
2022/03/07 05:30:16;;;;;;;11.00;6.70;;;-1.30;48.80;;;;;;5032329;28;46402;-65
2022/03/07 05:32:43;;;;;;;10.23;5.85;;;-1.40;48.80;;;;;;5030377;28;46398;-66
2022/03/07 05:35:09;;;;;;;8.70;6.40;;;-1.40;48.70;;;;;;5027903;28;46532;-68
2022/03/07 05:37:35;;;;;;;10.63;6.63;;;-1.40;48.70;;;;;;5029174;28;46446;-66
2022/03/07 05:40:01;;;;;;;9.27;6.23;;;-1.50;48.80;;;;;;5032131;28;46354;-67
2022/03/07 05:42:26;;;;;;;12.57;6.60;;;-1.50;48.80;;;;;;5038455;28;45903;-66
2022/03/07 05:44:52;;;;;;;11.27;6.57;;;-1.60;48.90;;;;;;5037388;28;47367;-68
2022/03/07 05:47:18;;;;;;;9.23;5.70;;;-1.50;49.10;;;;;;5038116;28;46418;-67
2022/03/07 05:49:44;;;;;;;11.60;6.83;;;-1.70;49.00;;;;;;5033931;28;46438;-69
2022/03/07 05:52:10;;;;;;;13.60;7.23;;;-1.70;48.90;;;;;;5033645;28;45839;-67
2022/03/07 05:54:35;;;;;;;9.95;5.53;;;-1.70;48.90;;;;;;5031371;28;46469;-66
2022/03/07 05:57:01;;;;;;;15.23;6.07;;;-1.70;48.90;;;;;;5030539;28;46669;-66
2022/03/07 05:59:27;;;;;;;9.07;5.67;;;-1.80;48.90;;;;;;5030528;28;46348;-67
2022/03/07 06:01:52;;;;;;;10.23;5.93;;;-1.80;48.80;;;;;;5026451;28;46601;-71
2022/03/07 06:04:18;;;;;;;11.00;5.70;;;-1.80;50.10;;;;;;5024797;28;46488;-67
2022/03/07 06:06:44;;;;;;;10.37;6.80;;;-1.80;48.80;;;;;;5032392;28;46426;-66
2022/03/07 06:09:10;;;;;;;10.50;6.50;;;-1.80;49.00;;;;;;5037017;28;46563;-66
2022/03/07 06:11:35;;;;;;;9.67;6.50;;;-1.80;48.80;;;;;;5033253;28;46446;-68
2022/03/07 06:14:01;;;;;;;9.57;5.77;;;-1.80;48.90;;;;;;5033334;28;46493;-66
2022/03/07 06:16:26;;;;;;;9.97;6.43;;;-1.80;49.80;;;;;;5034177;28;46417;-66
2022/03/07 06:18:52;;;;;;;10.23;5.50;;;-1.80;48.80;;;;;;5033138;28;46375;-66
2022/03/07 06:21:18;;;;;;;11.80;6.47;;;-1.80;48.80;;;;;;5029319;28;46432;-67
2022/03/07 06:23:43;;;;;;;11.13;5.90;;;-1.70;48.80;;;;;;5032230;28;46399;-66
2022/03/07 06:26:09;;;;;;;10.63;6.20;;;-1.70;48.60;;;;;;5033484;28;46351;-66
2022/03/07 06:28:35;;;;;;;7.57;5.40;;;-1.70;48.40;;;;;;5030643;28;46283;-67
2022/03/07 06:31:01;;;;;;;12.20;5.67;;;-1.60;48.40;;;;;;5028827;28;46561;-68
2022/03/07 06:33:27;;;;;;;35.63;5.75;;;-1.60;48.20;;;;;;5031894;28;46381;-68
2022/03/07 06:35:52;;;;;;;8.57;5.60;;;-1.50;47.90;;;;;;5036201;28;46549;-69
2022/03/07 06:38:19;;;;;;;10.73;6.43;;;-1.40;47.70;;;;;;5034819;28;46476;-65
2022/03/07 06:40:45;;;;;;;9.38;5.85;;;-1.30;47.50;;;;;;5034533;28;46686;-68
2022/03/07 06:43:11;;;;;;;9.80;6.45;;;-1.10;47.30;;;;;;5030307;28;46621;-72
2022/03/07 06:45:37;;;;;;;10.47;6.10;;;-1.00;47.20;;;;;;5028544;28;46305;-66
2022/03/07 06:48:03;;;;;;;9.90;6.53;;;-1.00;47.20;;;;;;5033886;28;46370;-64
2022/03/07 06:50:29;;;;;;;7.70;5.07;;;-0.90;47.20;;;;;;5032042;28;46497;-68
2022/03/07 06:52:55;;;;;;;10.20;6.30;;;-0.80;46.80;;;;;;5028531;28;46388;-66
2022/03/07 06:55:20;;;;;;;12.77;6.17;;;-0.80;46.60;;;;;;5029487;28;46437;-65
2022/03/07 06:57:46;;;;;;;11.67;5.90;;;-0.70;46.70;;;;;;5032515;28;46394;-64
2022/03/07 07:00:14;;;;;;;9.13;6.30;;;-0.70;46.40;;;;;;5030981;28;46473;-66
2022/03/07 07:02:40;;;;;;;8.10;5.32;;;-0.60;46.40;;;;;;5030053;28;46422;-65
2022/03/07 07:05:07;;;;;;;9.33;6.50;;;-0.50;46.10;;;;;;5031842;28;46354;-66
2022/03/07 07:07:34;;;;;;;9.35;6.07;;;-0.40;45.90;;;;;;5028502;28;46380;-70
2022/03/07 07:09:59;;;;;;;10.10;6.72;;;-0.40;45.60;;;;;;5029470;28;46490;-65
2022/03/07 07:12:25;;;;;;;12.23;7.23;;;-0.30;45.40;;;;;;5027099;28;48232;-66
2022/03/07 07:14:51;;;;;;;10.93;6.63;;;-0.30;45.20;;;;;;5030720;28;46368;-65
2022/03/07 07:17:17;;;;;;;12.03;6.40;;;-0.30;45.10;;;;;;5031938;28;46458;-66
2022/03/07 07:19:43;;;;;;;10.82;6.05;;;-0.30;45.00;;;;;;5031794;28;46263;-67
2022/03/07 07:22:09;;;;;;;10.50;6.50;;;-0.20;45.00;;;;;;5033682;28;47122;-68
2022/03/07 07:24:35;;;;;;;13.50;6.05;;;-0.10;44.90;;;;;;5033242;28;46383;-66
2022/03/07 07:27:00;;;;;;;11.40;6.90;;;-0.10;45.70;;;;;;5031709;28;46562;-69
2022/03/07 07:29:26;;;;;;;12.77;7.15;;;-0.10;44.50;;;;;;5027939;28;46383;-66
2022/03/07 07:31:52;;;;;;;10.03;6.10;;;-0.10;44.30;;;;;;5028196;28;47155;-66
2022/03/07 07:34:19;;;;;;;15.10;7.22;;;-0.10;44.40;;;;;;5029313;28;46372;-66
2022/03/07 07:36:45;;;;;;;16.50;7.22;;;0.00;44.00;;;;;;5030378;28;46338;-66
2022/03/07 07:39:11;;;;;;;10.03;6.47;;;0.00;44.00;;;;;;5032376;28;46364;-69
2022/03/07 07:41:36;;;;;;;9.25;6.30;;;0.20;44.20;;;;;;5028388;28;46403;-66
2022/03/07 07:44:03;;;;;;;11.10;7.20;;;0.20;44.20;;;;;;5028901;28;46338;-64
2022/03/07 07:46:29;;;;;;;11.18;7.95;;;0.40;44.40;;;;;;5033465;28;46422;-67
2022/03/07 07:48:54;;;;;;;18.40;7.50;;;0.40;44.30;;;;;;5034783;28;46381;-66
2022/03/07 07:51:20;;;;;;;12.50;7.83;;;0.50;43.80;;;;;;5034686;28;46448;-66
2022/03/07 07:53:46;;;;;;;15.70;7.43;;;0.40;43.60;;;;;;5031205;28;46358;-66
2022/03/07 07:56:12;;;;;;;15.40;7.77;;;0.60;43.50;;;;;;5028624;28;46417;-67
2022/03/07 07:58:37;;;;;;;12.73;7.40;;;0.70;43.30;;;;;;5031214;28;46580;-67
2022/03/07 08:01:04;;;;;;;25.53;7.70;;;0.60;43.20;;;;;;5030349;28;46510;-67
2022/03/07 08:03:29;;;;;;;11.05;7.20;;;0.60;43.00;;;;;;5027497;28;46272;-64
2022/03/07 08:05:55;;;;;;;10.73;6.33;;;0.60;43.00;;;;;;5030969;28;46467;-66
2022/03/07 08:08:21;;;;;;;13.77;8.63;;;0.70;42.60;;;;;;5030821;28;46529;-66
2022/03/07 08:10:46;;;;;;;10.40;6.57;;;0.70;42.50;;;;;;5030918;28;46405;-65
2022/03/07 08:13:12;;;;;;;12.13;8.00;;;0.90;42.30;;;;;;5032207;28;46424;-66
2022/03/07 08:15:40;;;;;;;16.33;5.67;;;0.90;42.10;;;;;;5030463;28;46343;-67
2022/03/07 08:18:06;;;;;;;30.80;12.00;;;0.90;41.60;;;;;;5029157;28;46392;-66
2022/03/07 08:20:32;;;;;;;17.25;9.63;;;0.90;42.00;;;;;;5025558;28;46422;-67
2022/03/07 08:22:58;;;;;;;32.23;14.17;;;1.00;41.40;;;;;;5021868;28;46323;-66
2022/03/07 08:25:24;;;;;;;23.05;10.82;;;1.20;41.60;;;;;;5023427;28;46459;-64
2022/03/07 08:27:51;;;;;;;16.58;9.52;;;1.10;41.30;;;;;;5031254;28;46544;-64
2022/03/07 08:30:24;;;;;;;19.75;11.23;;;1.20;41.10;;;;;;5040065;28;46517;-64
2022/03/07 08:32:50;;;;;;;14.75;8.65;;;1.40;40.90;;;;;;5038670;28;46536;-63
2022/03/07 08:35:16;;;;;;;17.08;10.25;;;1.60;40.50;;;;;;5033367;28;46467;-64
2022/03/07 08:37:45;;;;;;;14.82;9.40;;;1.70;40.00;;;;;;5036156;28;46516;-67
2022/03/07 08:40:13;;;;;;;16.42;8.63;;;2.10;39.90;;;;;;5031976;28;46318;-66
2022/03/07 08:42:38;;;;;;;12.15;7.60;;;2.10;39.00;;;;;;5030271;28;46279;-68
2022/03/07 08:45:06;;;;;;;15.20;9.37;;;2.00;38.90;;;;;;5030727;28;46374;-64
2022/03/07 08:47:32;;;;;;;13.27;8.77;;;2.00;38.50;;;;;;5030663;28;45960;-68
2022/03/07 08:49:58;;;;;;;12.50;8.35;;;2.20;38.30;;;;;;5040303;28;46697;-66
2022/03/07 08:52:24;;;;;;;16.57;9.27;;;2.30;37.70;;;;;;5027404;28;46444;-68
2022/03/07 08:54:50;;;;;;;16.90;9.20;;;2.40;37.40;;;;;;5033273;28;46440;-66
2022/03/07 08:57:15;;;;;;;15.00;8.50;;;2.50;37.20;;;;;;5028618;28;46356;-67
2022/03/07 08:59:41;;;;;;;19.30;8.90;;;2.20;37.00;;;;;;5034921;28;46309;-66
2022/03/07 09:02:09;;;;;;;17.13;9.13;;;2.20;38.70;;;;;;5030893;28;46351;-69
2022/03/07 09:04:35;;;;;;;16.40;10.18;;;2.30;37.70;;;;;;5029827;28;46432;-65
2022/03/07 09:07:01;;;;;;;13.35;9.10;;;2.00;37.70;;;;;;5065028;28;46685;-66
2022/03/07 09:09:28;;;;;;;21.73;10.47;;;1.60;38.10;;;;;;5032471;28;47156;-65
2022/03/07 09:11:53;;;;;;;15.10;8.43;;;1.50;38.40;;;;;;5033544;28;46982;-68
2022/03/07 09:14:19;;;;;;;16.63;8.70;;;1.60;38.50;;;;;;5031572;28;46377;-67
2022/03/07 09:16:45;;;;;;;14.50;9.13;;;1.70;38.60;;;;;;5032023;28;46425;-67
2022/03/07 09:19:10;;;;;;;16.17;10.47;;;1.70;38.60;;;;;;5031096;28;47014;-67
2022/03/07 09:21:36;;;;;;;13.07;9.13;;;1.80;38.30;;;;;;5033599;28;46574;-67
2022/03/07 09:24:02;;;;;;;13.13;8.93;;;1.90;38.20;;;;;;5035435;28;46483;-67
2022/03/07 09:26:27;;;;;;;21.58;11.40;;;1.90;38.20;;;;;;5035057;28;46399;-68
2022/03/07 09:28:53;;;;;;;17.10;11.20;;;2.20;38.10;;;;;;5031555;28;46599;-68
2022/03/07 09:31:19;;;;;;;17.70;10.23;;;2.00;37.80;;;;;;5029659;28;46498;-68
2022/03/07 09:33:44;;;;;;;16.67;10.70;;;1.90;38.00;;;;;;5034933;28;46315;-67
2022/03/07 09:36:10;;;;;;;14.00;9.80;;;1.70;38.30;;;;;;5031191;28;46420;-65
2022/03/07 09:38:36;;;;;;;19.60;9.77;;;1.80;38.20;;;;;;5032680;28;47077;-66
2022/03/07 09:41:03;;;;;;;15.85;10.77;;;1.90;37.70;;;;;;5035057;28;46440;-67
2022/03/07 09:43:29;;;;;;;16.55;10.70;;;1.70;37.90;;;;;;5032989;28;46508;-67
2022/03/07 09:45:55;;;;;;;20.43;11.20;;;1.60;38.40;;;;;;5033684;28;46303;-67
2022/03/07 09:48:25;;;;;;;17.80;11.70;;;1.80;38.70;;;;;;5031011;28;45924;-68
2022/03/07 09:50:52;;;;;;;16.15;9.27;;;2.10;38.10;;;;;;5035501;28;46485;-72
2022/03/07 09:53:19;;;;;;;19.98;11.93;;;2.20;37.50;;;;;;5031227;28;46376;-69
2022/03/07 09:55:45;;;;;;;16.98;10.77;;;2.10;37.70;;;;;;5029005;28;46634;-66
2022/03/07 09:58:12;;;;;;;18.85;11.20;;;2.10;37.60;;;;;;5031244;28;46408;-65
2022/03/07 10:00:41;;;;;;;17.52;10.50;;;2.40;37.00;;;;;;5037071;28;46547;-68
2022/03/07 10:03:13;;;;;;;18.38;10.70;;;2.80;36.10;;;;;;5028077;28;46450;-69
2022/03/07 10:05:44;;;;;;;17.85;11.65;;;3.00;35.90;;;;;;5032755;28;46503;-68
2022/03/07 10:08:20;;;;;;;18.65;10.95;;;3.20;35.50;;;;;;5035779;28;46521;-66
2022/03/07 10:10:45;;;;;;;23.10;12.45;;;3.50;34.70;;;;;;5031971;28;46898;-69
2022/03/07 10:13:14;;;;;;;18.00;10.70;;;3.70;34.10;;;;;;5030585;28;46291;-67
2022/03/07 10:15:42;;;;;;;18.17;10.70;;;3.50;33.30;;;;;;5028942;28;45954;-69
2022/03/07 10:18:16;;;;;;;20.27;12.77;;;3.10;33.40;;;;;;5028659;28;47200;-66
2022/03/07 10:20:52;;;;;;;18.57;12.63;;;3.00;33.30;;;;;;5030214;28;46270;-67
2022/03/07 10:23:18;;;;;;;20.40;12.90;;;3.10;33.30;;;;;;5029777;28;46160;-69
2022/03/07 10:25:44;;;;;;;20.07;11.40;;;3.00;32.70;;;;;;5031205;28;46703;-70
2022/03/07 10:28:10;;;;;;;18.67;11.18;;;2.90;32.90;;;;;;5029218;28;46495;-64
2022/03/07 10:30:38;;;;;;;18.35;10.60;;;2.90;33.30;;;;;;5027275;28;46448;-65
2022/03/07 10:33:14;;;;;;;20.77;12.10;;;2.80;32.60;;;;;;5029627;28;46405;-64
2022/03/07 10:35:47;;;;;;;19.33;12.75;;;2.80;32.60;;;;;;5028273;28;46326;-69
2022/03/07 10:38:16;;;;;;;17.70;11.07;;;2.70;32.70;;;;;;5028707;28;46937;-66
2022/03/07 10:40:47;;;;;;;21.88;11.70;;;2.80;32.50;;;;;;5030570;28;46548;-67
2022/03/07 10:43:12;;;;;;;18.50;11.75;;;2.70;32.60;;;;;;5032111;28;46592;-66
2022/03/07 10:45:56;;;;;;;22.03;12.43;;;2.70;33.00;;;;;;5025242;28;46620;-67
2022/03/07 10:48:24;;;;;;;21.20;14.13;;;3.00;32.90;;;;;;5031665;28;46429;-67
2022/03/07 10:50:53;;;;;;;21.40;12.77;;;2.80;33.20;;;;;;5033487;28;46326;-66
2022/03/07 10:53:19;;;;;;;19.13;13.05;;;2.80;33.30;;;;;;5027405;28;46341;-69
2022/03/07 10:55:56;;;;;;;20.70;12.45;;;2.90;32.90;;;;;;5031779;28;46562;-68
2022/03/07 10:58:51;;;;;;;28.50;13.40;;;2.90;32.50;;;;;;5029390;28;46312;-65
2022/03/07 11:04:57;;;;;;;14.65;10.05;;;3.10;31.70;;;;;;5026598;28;45739;-68
2022/03/07 11:23:18;;;;;;;29.80;13.35;;;3.20;31.80;;;;;;5032247;28;45961;-69
2022/03/07 11:25:45;;;;;;;27.00;14.57;;;3.20;32.00;;;;;;5030579;28;45834;-67
2022/03/07 11:28:11;;;;;;;19.77;12.73;;;3.30;32.00;;;;;;5030663;28;46798;-69
2022/03/07 11:30:55;;;;;;;19.85;12.18;;;3.40;31.50;;;;;;5027451;28;46700;-70
2022/03/07 11:33:47;;;;;;;28.35;14.35;;;3.40;31.50;;;;;;5031136;28;46453;-68
2022/03/07 11:36:32;;;;;;;20.90;13.32;;;3.40;31.30;;;;;;5032724;28;46433;-70
2022/03/07 11:39:02;;;;;;;23.17;15.48;;;3.20;31.60;;;;;;5025728;28;45857;-71
2022/03/07 11:42:06;;;;;;;18.50;12.32;;;3.10;31.60;;;;;;5025877;28;46521;-69
2022/03/07 11:44:31;;;;;;;24.50;14.05;;;3.10;31.70;;;;;;5025847;28;47078;-69
2022/03/07 11:47:07;;;;;;;16.77;11.30;;;3.40;31.50;;;;;;5031169;28;46447;-70
2022/03/07 11:49:33;;;;;;;21.40;13.95;;;3.40;31.10;;;;;;5029245;28;46475;-69
2022/03/07 11:52:03;;;;;;;17.93;10.77;;;3.40;31.40;;;;;;5030496;28;46375;-69
2022/03/07 11:54:29;;;;;;;20.70;13.55;;;3.40;31.00;;;;;;5036764;28;46350;-68
2022/03/07 11:57:10;;;;;;;20.90;12.90;;;3.40;30.90;;;;;;5028256;28;46397;-69
2022/03/07 11:59:36;;;;;;;18.30;11.75;;;3.30;31.10;;;;;;5031561;28;46457;-67
2022/03/07 12:02:02;;;;;;;20.50;12.95;;;3.30;31.00;;;;;;5024537;28;46560;-68
2022/03/07 12:04:43;;;;;;;23.23;14.45;;;3.40;31.10;;;;;;5031404;28;46363;-66
2022/03/07 12:07:09;;;;;;;20.98;13.23;;;3.40;30.80;;;;;;5028423;28;46399;-68
2022/03/07 12:09:38;;;;;;;24.40;14.33;;;3.60;30.30;;;;;;5027731;28;46399;-65
2022/03/07 12:12:10;;;;;;;19.97;13.07;;;3.60;30.40;;;;;;5027645;28;46402;-67
2022/03/07 12:14:43;;;;;;;22.13;13.02;;;3.70;30.30;;;;;;5025900;28;48006;-70
2022/03/07 12:17:12;;;;;;;22.23;13.60;;;3.80;30.40;;;;;;5027271;28;46406;-69
2022/03/07 12:19:39;;;;;;;23.73;13.07;;;3.50;30.80;;;;;;5028396;28;46427;-68
2022/03/07 12:22:16;;;;;;;24.50;12.70;;;3.30;31.30;;;;;;5026464;28;46470;-69
2022/03/07 12:24:43;;;;;;;21.30;13.40;;;3.40;31.30;;;;;;5030109;28;46366;-67
2022/03/07 12:27:10;;;;;;;23.60;13.95;;;3.40;31.00;;;;;;5029216;28;46441;-68
2022/03/07 12:29:43;;;;;;;20.33;14.15;;;3.40;31.10;;;;;;5028703;28;46286;-70
2022/03/07 12:32:10;;;;;;;21.17;13.37;;;3.40;31.10;;;;;;5036047;28;46491;-69
2022/03/07 12:34:39;;;;;;;21.85;13.98;;;3.50;30.70;;;;;;5031602;28;46641;-69
2022/03/07 12:37:05;;;;;;;26.15;13.90;;;3.40;30.90;;;;;;5028370;28;46442;-69
2022/03/07 12:39:43;;;;;;;19.40;12.93;;;3.30;31.00;;;;;;5032406;28;46367;-66
2022/03/07 12:42:09;;;;;;;21.88;13.20;;;3.20;31.20;;;;;;5027993;28;46301;-68
2022/03/07 12:44:36;;;;;;;23.60;14.17;;;3.50;30.90;;;;;;5030973;28;46497;-66
2022/03/07 12:47:02;;;;;;;18.67;13.73;;;3.50;30.70;;;;;;5032560;28;46543;-70
2022/03/07 12:49:27;;;;;;;25.47;14.80;;;3.40;30.80;;;;;;5028702;28;46418;-69
2022/03/07 12:51:53;;;;;;;22.23;15.10;;;3.30;31.30;;;;;;5026703;28;46544;-68
2022/03/07 12:54:28;;;;;;;19.90;13.13;;;3.60;30.70;;;;;;5030628;28;46458;-69
2022/03/07 12:56:54;;;;;;;21.23;13.20;;;3.60;30.50;;;;;;5033500;28;46389;-66